createdAt,value
2023-10-26T04:15:23.144Z,987.91
2023-10-26T04:16:23.183Z,987.91
2023-10-26T04:17:23.045Z,987.94
2023-10-26T04:18:23.044Z,987.98
2023-10-26T04:19:23.018Z,987.95
2023-10-26T04:20:23.029Z,987.96
2023-10-26T04:21:23.106Z,987.99
2023-10-26T04:22:22.996Z,988.01
2023-10-26T04:23:23.017Z,988.02
2023-10-26T04:24:22.998Z,988.02
2023-10-26T04:25:22.983Z,988.03
2023-10-26T04:26:23.000Z,988.08
2023-10-26T04:27:23.051Z,988.08
2023-10-26T04:28:22.963Z,988.12
2023-10-26T04:29:22.963Z,988.12
2023-10-26T04:30:23.047Z,988.13
2023-10-26T04:31:23.101Z,988.13
2023-10-26T04:32:22.952Z,988.13
2023-10-26T04:33:22.995Z,988.12
2023-10-26T04:34:22.958Z,988.10
2023-10-26T04:35:22.968Z,988.15
2023-10-26T04:36:23.067Z,988.14
2023-10-26T04:37:22.960Z,988.14
2023-10-26T04:38:22.939Z,988.14
2023-10-26T04:39:22.987Z,988.16
2023-10-26T04:40:22.931Z,988.19
2023-10-26T04:41:23.000Z,988.18
2023-10-26T04:42:23.043Z,988.19
2023-10-26T04:43:22.939Z,988.18
2023-10-26T04:44:22.946Z,988.18
2023-10-26T04:45:23.026Z,988.21
2023-10-26T04:46:23.027Z,988.22
2023-10-26T04:47:22.935Z,988.21
2023-10-26T04:48:22.995Z,988.24
2023-10-26T04:49:22.978Z,988.24
2023-10-26T04:50:22.966Z,988.25
2023-10-26T04:51:23.025Z,988.24
2023-10-26T04:52:22.993Z,988.25
2023-10-26T04:53:23.034Z,988.21
2023-10-26T04:54:22.994Z,988.24
2023-10-26T04:55:22.940Z,988.22
2023-10-26T04:56:23.035Z,988.21
2023-10-26T04:57:22.892Z,988.23
2023-10-26T04:58:22.866Z,988.25
2023-10-26T04:59:22.877Z,988.28
2023-10-26T05:00:22.955Z,988.26
2023-10-26T05:01:22.995Z,988.28
2023-10-26T05:02:22.886Z,988.26
2023-10-26T05:03:22.907Z,988.27
2023-10-26T05:04:22.852Z,988.28
2023-10-26T05:05:22.835Z,988.32
2023-10-26T05:06:23.006Z,988.29
2023-10-26T05:07:22.833Z,988.29
2023-10-26T05:08:22.827Z,988.28
2023-10-26T05:09:22.870Z,988.29
2023-10-26T05:10:22.827Z,988.29
2023-10-26T05:11:22.825Z,988.27
2023-10-26T05:12:22.839Z,988.26
2023-10-26T05:13:22.804Z,988.29
2023-10-26T05:14:22.798Z,988.30
2023-10-26T05:15:22.827Z,988.27
2023-10-26T05:16:22.870Z,988.29
2023-10-26T05:17:22.802Z,988.30
2023-10-26T05:18:22.828Z,988.33
2023-10-26T05:19:22.825Z,988.30
2023-10-26T05:20:22.790Z,988.30
2023-10-26T05:21:22.834Z,988.29
2023-10-26T05:22:22.823Z,988.30
2023-10-26T05:23:22.753Z,988.28
2023-10-26T05:24:22.770Z,988.29
2023-10-26T05:25:22.762Z,988.29
2023-10-26T05:26:22.752Z,988.31
2023-10-26T05:27:22.835Z,988.29
2023-10-26T05:28:22.747Z,988.28
2023-10-26T05:29:22.743Z,988.33
2023-10-26T05:30:22.813Z,988.27
2023-10-26T05:31:22.800Z,988.33
2023-10-26T05:32:22.735Z,988.34
2023-10-26T05:33:22.778Z,988.34
2023-10-26T05:34:22.720Z,988.36
2023-10-26T05:35:22.732Z,988.39
2023-10-26T05:36:22.733Z,988.35
2023-10-26T05:37:22.716Z,988.35
2023-10-26T05:38:22.707Z,988.34
2023-10-26T05:39:22.727Z,988.33
2023-10-26T05:40:22.696Z,988.33
2023-10-26T05:41:22.727Z,988.35
2023-10-26T05:42:22.726Z,988.34
2023-10-26T05:43:22.692Z,988.33
2023-10-26T05:44:22.683Z,988.31
2023-10-26T05:45:22.703Z,988.30
2023-10-26T05:46:22.705Z,988.34
2023-10-26T05:47:22.682Z,988.34
2023-10-26T05:48:22.696Z,988.38
2023-10-26T05:49:22.664Z,988.41
2023-10-26T05:50:22.700Z,988.43
2023-10-26T05:51:22.708Z,988.44
2023-10-26T05:52:22.674Z,988.47
2023-10-26T05:53:22.657Z,988.50
2023-10-26T05:54:22.684Z,988.50
2023-10-26T05:55:22.642Z,988.49
2023-10-26T05:56:22.645Z,988.52
2023-10-26T05:57:22.700Z,988.50
2023-10-26T05:58:22.638Z,988.53
2023-10-26T05:59:22.644Z,988.51
2023-10-26T06:00:22.660Z,988.50
2023-10-26T06:01:22.670Z,988.52
2023-10-26T06:02:22.676Z,988.48
2023-10-26T06:03:22.676Z,988.46
2023-10-26T06:04:22.604Z,988.47
2023-10-26T06:05:22.611Z,988.48
2023-10-26T06:06:22.680Z,988.46
2023-10-26T06:07:22.617Z,988.50
2023-10-26T06:08:22.622Z,988.46
2023-10-26T06:09:22.622Z,988.47
2023-10-26T06:10:22.593Z,988.47
2023-10-26T06:11:22.593Z,988.52
2023-10-26T06:12:22.637Z,988.49
2023-10-26T06:13:22.590Z,988.50
2023-10-26T06:14:22.611Z,988.52
2023-10-26T06:15:22.584Z,988.53
2023-10-26T06:16:22.656Z,988.58
2023-10-26T06:17:22.566Z,988.58
2023-10-26T06:18:22.597Z,988.56
2023-10-26T06:19:22.567Z,988.60
2023-10-26T06:20:22.564Z,988.61
2023-10-26T06:21:22.614Z,988.66
2023-10-26T06:22:22.588Z,988.71
2023-10-26T06:23:22.560Z,988.70
2023-10-26T06:24:22.583Z,988.70
2023-10-26T06:25:22.536Z,988.71
2023-10-26T06:26:22.543Z,988.72
2023-10-26T06:27:22.613Z,988.75
2023-10-26T06:28:22.529Z,988.73
2023-10-26T06:29:22.531Z,988.75
2023-10-26T06:30:22.588Z,988.76
2023-10-26T06:31:22.535Z,988.77
2023-10-26T06:32:22.528Z,988.77
2023-10-26T06:33:22.536Z,988.80
2023-10-26T06:34:22.534Z,988.79
2023-10-26T06:35:22.496Z,988.85
2023-10-26T06:36:22.550Z,988.82
2023-10-26T06:37:22.509Z,988.84
2023-10-26T06:38:22.527Z,988.81
2023-10-26T06:39:22.557Z,988.82
2023-10-26T06:40:22.489Z,988.84
2023-10-26T06:41:22.487Z,988.85
2023-10-26T06:42:22.542Z,988.82
2023-10-26T06:43:22.505Z,988.85
2023-10-26T06:44:22.473Z,988.86
2023-10-26T06:45:22.492Z,988.91
2023-10-26T06:46:22.515Z,988.89
2023-10-26T06:47:22.473Z,988.91
2023-10-26T06:48:22.516Z,988.97
2023-10-26T06:49:30.202Z,988.96
2023-10-26T06:50:22.468Z,988.94
2023-10-26T06:51:22.455Z,988.98
2023-10-26T06:52:22.449Z,988.99
2023-10-26T06:53:22.464Z,988.97
2023-10-26T06:54:22.525Z,989.03
2023-10-26T06:55:30.056Z,989.02
2023-10-26T06:56:22.433Z,989.02
2023-10-26T06:57:22.472Z,988.99
2023-10-26T06:58:22.437Z,989.06
2023-10-26T06:59:22.419Z,989.03
2023-10-26T07:00:22.481Z,989.06
2023-10-26T07:01:22.449Z,989.05
2023-10-26T07:02:22.445Z,989.07
2023-10-26T07:03:22.617Z,989.06
2023-10-26T07:04:22.513Z,989.08
2023-10-26T07:05:22.437Z,989.08
2023-10-26T07:06:22.439Z,989.11
2023-10-26T07:07:22.402Z,989.16
2023-10-26T07:08:22.408Z,989.14
2023-10-26T07:09:22.446Z,989.18
2023-10-26T07:10:22.408Z,989.16
2023-10-26T07:11:22.431Z,989.16
2023-10-26T07:13:54.956Z,989.17
2023-10-26T07:14:54.936Z,989.15
2023-10-26T07:15:54.988Z,989.17
2023-10-26T07:16:54.929Z,989.18
2023-10-26T07:17:54.928Z,989.20
2023-10-26T07:18:54.947Z,989.18
2023-10-26T07:19:54.937Z,989.21
2023-10-26T07:20:54.946Z,989.21
2023-10-26T07:21:54.916Z,989.25
2023-10-26T07:22:54.905Z,989.26
2023-10-26T07:23:54.913Z,989.27
2023-10-26T07:24:54.923Z,989.27
2023-10-26T07:25:54.930Z,989.30
2023-10-26T07:26:54.904Z,989.30
2023-10-26T07:27:54.889Z,989.27
2023-10-26T07:28:54.889Z,989.26
2023-10-26T07:29:54.898Z,989.24
2023-10-26T07:30:54.898Z,989.23
2023-10-26T07:31:54.881Z,989.21
2023-10-26T07:32:54.906Z,989.21
2023-10-26T07:33:54.897Z,989.21
2023-10-26T07:34:54.874Z,989.19
2023-10-26T07:35:54.880Z,989.23
2023-10-26T07:36:54.871Z,989.20
2023-10-26T07:38:09.087Z,989.20
2023-10-26T07:39:47.487Z,989.21
2023-10-26T07:40:27.798Z,989.20
2023-10-26T07:40:54.963Z,989.20
2023-10-26T07:42:07.053Z,989.20
2023-10-26T07:42:54.863Z,989.23
2023-10-26T07:43:54.841Z,989.20
2023-10-26T07:44:54.850Z,989.23
2023-10-26T07:45:54.891Z,989.21
2023-10-26T07:46:54.846Z,989.26
2023-10-26T07:47:54.877Z,989.23
2023-10-26T07:48:54.821Z,989.19
2023-10-26T07:49:54.832Z,989.19
2023-10-26T07:50:54.835Z,989.17
2023-10-26T07:51:54.816Z,989.18
2023-10-26T07:52:54.811Z,989.14
2023-10-26T07:53:54.810Z,989.15
2023-10-26T07:54:54.897Z,989.11
2023-10-26T07:55:54.808Z,989.10
2023-10-26T07:56:54.882Z,989.10
2023-10-26T07:57:54.798Z,989.12
2023-10-26T07:58:54.915Z,989.14
2023-10-26T07:59:54.790Z,989.17
2023-10-26T08:00:54.805Z,989.16
2023-10-26T08:01:54.888Z,989.20
2023-10-26T08:02:54.850Z,989.22
2023-10-26T08:03:54.795Z,989.25
2023-10-26T08:04:54.900Z,989.24
2023-10-26T08:05:54.787Z,989.29
2023-10-26T08:06:54.800Z,989.30
2023-10-26T08:07:54.807Z,989.28
2023-10-26T08:08:54.776Z,989.28
2023-10-26T08:09:54.783Z,989.27
2023-10-26T08:10:54.805Z,989.23
2023-10-26T08:11:54.764Z,989.26
2023-10-26T08:12:54.749Z,989.27
2023-10-26T08:13:54.802Z,989.25
2023-10-26T08:16:06.271Z,989.26
2023-10-26T08:16:28.528Z,989.24
2023-10-26T08:16:55.035Z,989.27
2023-10-26T08:17:54.917Z,989.28
2023-10-26T08:18:54.838Z,989.29
2023-10-26T08:19:54.958Z,989.28
2023-10-26T08:20:54.728Z,989.24
2023-10-26T08:21:54.724Z,989.29
2023-10-26T08:22:54.798Z,989.25
2023-10-26T08:23:54.711Z,989.30
2023-10-26T08:24:54.723Z,989.26
2023-10-26T08:25:54.748Z,989.28
2023-10-26T08:26:54.704Z,989.30
2023-10-26T08:27:54.716Z,989.29
2023-10-26T08:29:10.454Z,989.30
2023-10-26T08:29:54.751Z,989.34
2023-10-26T08:30:54.722Z,989.33
2023-10-26T08:31:54.836Z,989.36
2023-10-26T08:32:54.819Z,989.31
2023-10-26T08:33:54.677Z,989.31
2023-10-26T08:34:54.781Z,989.31
2023-10-26T08:35:54.716Z,989.30
2023-10-26T08:37:11.470Z,989.28
2023-10-26T08:37:54.750Z,989.24
2023-10-26T08:38:54.685Z,989.25
2023-10-26T08:39:54.710Z,989.25
2023-10-26T08:40:54.737Z,989.21
2023-10-26T08:41:54.667Z,989.24
2023-10-26T08:42:54.659Z,989.24
2023-10-26T08:43:54.679Z,989.29
2023-10-26T08:45:02.213Z,989.25
2023-10-26T08:45:54.681Z,989.29
2023-10-26T08:46:54.704Z,989.30
2023-10-26T08:48:54.638Z,989.30
2023-10-26T08:50:08.015Z,989.33
2023-10-26T08:50:54.627Z,989.35
2023-10-26T08:51:54.693Z,989.35
2023-10-26T08:52:54.682Z,989.34
2023-10-26T08:53:55.843Z,989.35
2023-10-26T08:54:54.625Z,989.37
2023-10-26T08:55:54.680Z,989.43
2023-10-26T08:56:54.689Z,989.45
2023-10-26T08:57:54.633Z,989.42
2023-10-26T08:58:54.654Z,989.48
2023-10-26T08:59:54.630Z,989.48
2023-10-26T09:00:54.631Z,989.47
2023-10-26T09:01:54.684Z,989.47
2023-10-26T09:02:54.855Z,989.46
2023-10-26T09:03:54.640Z,989.46
2023-10-26T09:04:54.634Z,989.46
2023-10-26T09:05:54.589Z,989.49
2023-10-26T09:06:54.581Z,989.47
2023-10-26T09:07:54.583Z,989.51
2023-10-26T09:08:54.580Z,989.53
2023-10-26T09:09:54.582Z,989.53
2023-10-26T09:10:54.635Z,989.53
2023-10-26T09:11:54.580Z,989.54
2023-10-26T09:12:54.559Z,989.57
2023-10-26T09:13:54.628Z,989.55
2023-10-26T09:14:55.458Z,989.59
2023-10-26T09:15:54.681Z,989.61
2023-10-26T09:16:54.610Z,989.61
2023-10-26T09:17:54.612Z,989.61
2023-10-26T09:18:54.593Z,989.62
2023-10-26T09:19:54.611Z,989.59
2023-10-26T09:20:54.551Z,989.60
2023-10-26T09:21:54.607Z,989.59
2023-10-26T09:22:54.560Z,989.55
2023-10-26T09:23:54.586Z,989.56
2023-10-26T09:24:54.669Z,989.58
2023-10-26T09:25:54.706Z,989.57
2023-10-26T09:26:54.537Z,989.56
2023-10-26T09:27:54.673Z,989.55
2023-10-26T09:28:54.590Z,989.58
2023-10-26T09:29:54.554Z,989.55
2023-10-26T09:30:54.516Z,989.59
2023-10-26T09:31:54.638Z,989.60
2023-10-26T09:32:54.778Z,989.64
2023-10-26T09:33:54.523Z,989.59
2023-10-26T09:34:54.543Z,989.61
2023-10-26T09:35:54.495Z,989.65
2023-10-26T09:36:54.510Z,989.65
2023-10-26T09:37:54.539Z,989.67
2023-10-26T09:38:54.489Z,989.67
2023-10-26T09:40:12.173Z,989.69
2023-10-26T09:40:54.540Z,989.73
2023-10-26T09:41:54.540Z,989.70
2023-10-26T09:42:54.502Z,989.73
2023-10-26T09:43:54.554Z,989.71
2023-10-26T09:44:54.461Z,989.72
2023-10-26T09:45:54.526Z,989.73
2023-10-26T09:46:54.480Z,989.72
2023-10-26T09:47:54.740Z,989.74
2023-10-26T09:48:54.539Z,989.73
2023-10-26T09:49:54.528Z,989.72
2023-10-26T09:50:54.482Z,989.74
2023-10-26T09:51:54.468Z,989.74
2023-10-26T09:52:54.546Z,989.72
2023-10-26T09:53:54.558Z,989.76
2023-10-26T09:54:54.444Z,989.76
2023-10-26T09:55:54.439Z,989.81
2023-10-26T09:58:26.996Z,989.84
2023-10-26T09:59:26.985Z,989.83
2023-10-26T10:00:26.977Z,989.80
2023-10-26T10:01:27.001Z,989.86
2023-10-26T10:02:26.960Z,989.82
2023-10-26T10:03:26.991Z,989.84
2023-10-26T10:04:26.989Z,989.85
2023-10-26T10:05:26.991Z,989.85
2023-10-26T10:06:27.027Z,989.86
2023-10-26T10:07:27.169Z,989.87
2023-10-26T10:08:26.949Z,989.86
2023-10-26T10:09:27.008Z,989.87
2023-10-26T10:10:26.960Z,989.87
2023-10-26T10:11:26.946Z,989.85
2023-10-26T10:12:26.957Z,989.93
2023-10-26T10:13:26.947Z,989.90
2023-10-26T10:14:26.957Z,989.93
2023-10-26T10:15:41.357Z,989.96
2023-10-26T10:16:26.976Z,989.98
2023-10-26T10:17:26.928Z,989.99
2023-10-26T10:18:26.956Z,990.00
2023-10-26T10:29:44.126Z,990.11
2023-10-26T10:30:44.106Z,990.08
2023-10-26T10:31:44.046Z,990.08
2023-10-26T10:32:44.264Z,990.08
2023-10-26T10:33:44.105Z,990.06
2023-10-26T10:34:44.256Z,990.07
2023-10-26T10:35:44.035Z,990.05
2023-10-26T10:36:44.048Z,990.01
2023-10-26T10:37:44.024Z,990.01
2023-10-26T10:38:44.034Z,990.00
2023-10-26T10:39:44.027Z,990.02
2023-10-26T10:40:44.034Z,990.01
2023-10-26T10:41:44.022Z,989.99
2023-10-26T10:42:44.010Z,989.98
2023-10-26T10:43:44.007Z,990.04
2023-10-26T10:44:44.054Z,990.07
2023-10-26T10:45:44.015Z,990.07
2023-10-26T10:46:44.012Z,990.05
2023-10-26T10:47:44.003Z,990.08
2023-10-26T10:48:43.954Z,990.07
2023-10-26T10:49:43.948Z,990.07
2023-10-26T10:50:43.948Z,990.07
2023-10-26T10:51:44.064Z,990.07
2023-10-26T10:52:43.938Z,990.04
2023-10-26T10:53:43.945Z,990.06
2023-10-26T10:54:53.373Z,990.07
2023-10-26T10:55:43.978Z,990.07
2023-10-26T10:56:43.930Z,990.10
2023-10-26T10:57:43.982Z,990.08
2023-10-26T10:58:43.921Z,990.07
2023-10-26T10:59:43.905Z,990.11
2023-10-26T11:00:43.949Z,990.09
2023-10-26T11:01:43.976Z,990.10
2023-10-26T11:02:43.922Z,990.11
2023-10-26T11:03:44.041Z,990.10
2023-10-26T11:04:55.370Z,990.10
2023-10-26T11:05:43.906Z,990.10
2023-10-26T11:06:43.934Z,990.08
2023-10-26T11:07:43.925Z,990.04
2023-10-26T11:08:43.909Z,990.03
2023-10-26T11:09:43.921Z,990.00
2023-10-26T11:10:43.904Z,989.97
2023-10-26T11:11:43.918Z,989.95
2023-10-26T11:12:43.929Z,989.93
2023-10-26T11:13:43.900Z,989.89
2023-10-26T11:14:44.073Z,989.92
2023-10-26T11:15:43.951Z,989.89
2023-10-26T11:16:43.905Z,989.92
2023-10-26T11:17:44.043Z,989.87
2023-10-26T11:18:43.906Z,989.90
2023-10-26T11:19:43.891Z,989.91
2023-10-26T11:20:43.894Z,989.88
2023-10-26T11:21:43.917Z,989.84
2023-10-26T11:22:43.899Z,989.85
2023-10-26T11:23:43.890Z,989.82
2023-10-26T11:24:44.100Z,989.79
2023-10-26T11:25:43.890Z,989.81
2023-10-26T11:26:43.873Z,989.87
2023-10-26T11:27:44.661Z,989.85
2023-10-26T11:28:43.875Z,989.82
2023-10-26T11:29:43.905Z,989.79
2023-10-26T11:30:43.952Z,989.78
2023-10-26T11:31:43.885Z,989.74
2023-10-26T11:32:43.869Z,989.72
2023-10-26T11:33:44.000Z,989.71
2023-10-26T11:34:43.961Z,989.67
2023-10-26T11:35:43.856Z,989.71
2023-10-26T11:36:43.868Z,989.73
2023-10-26T11:37:43.836Z,989.72
2023-10-26T11:38:43.906Z,989.75
2023-10-26T11:39:43.893Z,989.77
2023-10-26T11:40:43.843Z,989.77
2023-10-26T11:41:43.823Z,989.78
2023-10-26T11:42:43.855Z,989.79
2023-10-26T11:43:43.827Z,989.77
2023-10-26T11:44:44.002Z,989.81
2023-10-26T11:45:43.905Z,989.80
2023-10-26T11:46:43.849Z,989.82
2023-10-26T11:47:43.836Z,989.79
2023-10-26T11:48:43.816Z,989.84
2023-10-26T11:49:43.947Z,989.82
2023-10-26T11:50:43.817Z,989.83
2023-10-26T11:51:47.531Z,989.86
2023-10-26T11:52:43.789Z,989.85
2023-10-26T11:53:43.791Z,989.83
2023-10-26T11:54:43.963Z,989.80
2023-10-26T11:55:43.783Z,989.83
2023-10-26T11:56:44.808Z,989.80
2023-10-26T11:57:43.789Z,989.80
2023-10-26T11:59:43.897Z,989.76
2023-10-26T12:00:43.805Z,989.81
2023-10-26T12:01:43.791Z,989.79
2023-10-26T12:02:43.830Z,989.79
2023-10-26T12:03:43.837Z,989.78
2023-10-26T12:04:43.760Z,989.77
2023-10-26T12:05:43.886Z,989.79
2023-10-26T12:06:43.774Z,989.80
2023-10-26T12:07:43.765Z,989.79
2023-10-26T12:08:43.751Z,989.79
2023-10-26T12:09:43.924Z,989.81
2023-10-26T12:10:43.774Z,989.82
2023-10-26T12:11:43.746Z,989.85
2023-10-26T12:12:43.797Z,989.87
2023-10-26T12:13:43.750Z,989.84
2023-10-26T12:14:43.726Z,989.85
2023-10-26T12:15:43.758Z,989.82
2023-10-26T12:16:43.781Z,989.82
2023-10-26T12:17:43.755Z,989.79
2023-10-26T12:18:43.736Z,989.80
2023-10-26T12:19:43.862Z,989.85
2023-10-26T12:20:43.715Z,989.78
2023-10-26T12:21:43.835Z,989.84
2023-10-26T12:22:43.719Z,989.85
2023-10-26T12:23:43.709Z,989.85
2023-10-26T12:24:43.715Z,989.84
2023-10-26T12:25:43.735Z,989.88
2023-10-26T12:26:43.708Z,989.84
2023-10-26T12:28:21.220Z,989.84
2023-10-26T12:28:43.727Z,989.86
2023-10-26T12:29:43.857Z,989.84
2023-10-26T12:30:43.736Z,989.85
2023-10-26T12:31:43.702Z,989.84
2023-10-26T12:32:43.703Z,989.87
2023-10-26T12:33:43.707Z,989.85
2023-10-26T12:34:43.676Z,989.88
2023-10-26T12:35:43.729Z,989.88
2023-10-26T12:36:43.733Z,989.88
2023-10-26T12:37:43.796Z,989.91
2023-10-26T12:38:43.663Z,989.90
2023-10-26T12:39:43.870Z,989.93
2023-10-26T12:40:43.697Z,989.93
2023-10-26T12:41:43.672Z,989.95
2023-10-26T12:42:43.672Z,989.97
2023-10-26T12:43:43.658Z,989.95
2023-10-26T12:44:43.892Z,990.01
2023-10-26T12:45:43.730Z,989.99
2023-10-26T12:46:43.686Z,990.01
2023-10-26T12:47:43.690Z,989.97
2023-10-26T12:48:43.651Z,989.97
2023-10-26T12:49:43.809Z,989.92
2023-10-26T12:50:43.635Z,989.90
2023-10-26T12:51:43.632Z,989.93
2023-10-26T12:52:43.685Z,989.92
2023-10-26T12:53:43.789Z,989.93
2023-10-26T12:54:43.815Z,989.90
2023-10-26T12:55:43.620Z,989.90
2023-10-26T12:56:43.605Z,989.93
2023-10-26T12:57:43.680Z,989.93
2023-10-26T12:58:43.598Z,989.88
2023-10-26T12:59:43.613Z,989.94
2023-10-26T13:00:43.774Z,989.96
2023-10-26T13:01:43.623Z,989.96
2023-10-26T13:02:43.658Z,989.90
2023-10-26T13:03:43.691Z,989.90
2023-10-26T13:04:43.880Z,989.93
2023-10-26T13:05:43.601Z,989.94
2023-10-26T13:06:43.672Z,989.91
2023-10-26T13:07:43.593Z,989.94
2023-10-26T13:08:43.592Z,989.92
2023-10-26T13:09:44.159Z,989.88
2023-10-26T13:10:43.586Z,989.87
2023-10-26T13:11:43.573Z,989.83
2023-10-26T13:12:43.682Z,989.80
2023-10-26T13:13:43.578Z,989.81
2023-10-26T13:14:43.782Z,989.81
2023-10-26T13:15:43.589Z,989.76
2023-10-26T13:16:56.823Z,989.79
2023-10-26T13:17:43.667Z,989.79
2023-10-26T13:18:45.712Z,989.80
2023-10-26T13:19:43.735Z,989.79
2023-10-26T13:20:43.557Z,989.81
2023-10-26T13:21:43.612Z,989.85
2023-10-26T13:22:43.531Z,989.82
2023-10-26T13:23:43.564Z,989.82
2023-10-26T13:24:43.789Z,989.78
2023-10-26T13:25:43.620Z,989.76
2023-10-26T13:26:43.522Z,989.74
2023-10-26T13:27:43.541Z,989.75
2023-10-26T13:28:43.576Z,989.72
2023-10-26T13:29:43.769Z,989.74
2023-10-26T13:30:43.598Z,989.76
2023-10-26T13:31:43.547Z,989.74
2023-10-26T13:32:43.513Z,989.74
2023-10-26T13:33:43.523Z,989.77
2023-10-26T13:34:43.808Z,989.78
2023-10-26T13:35:43.504Z,989.82
2023-10-26T13:36:43.491Z,989.80
2023-10-26T13:37:43.501Z,989.81
2023-10-26T13:38:43.495Z,989.77
2023-10-26T13:39:43.678Z,989.77
2023-10-26T13:40:43.477Z,989.79
2023-10-26T13:41:43.599Z,989.80
2023-10-26T13:42:43.572Z,989.80
2023-10-26T13:43:43.464Z,989.84
2023-10-26T13:44:43.466Z,989.89
2023-10-26T13:45:43.493Z,989.84
2023-10-26T13:46:43.509Z,989.81
2023-10-26T13:47:43.532Z,989.78
2023-10-26T13:48:43.480Z,989.80
2023-10-26T13:49:43.735Z,989.78
2023-10-26T13:50:45.560Z,989.77
2023-10-26T13:51:43.452Z,989.74
2023-10-26T13:52:43.470Z,989.74
2023-10-26T13:53:43.433Z,989.72
2023-10-26T13:54:43.708Z,989.70
2023-10-26T13:55:43.451Z,989.69
2023-10-26T13:56:43.430Z,989.66
2023-10-26T13:57:43.591Z,989.64
2023-10-26T13:58:43.425Z,989.66
2023-10-26T13:59:43.428Z,989.64
2023-10-26T14:00:43.462Z,989.65
2023-10-26T14:01:43.481Z,989.62
2023-10-26T14:02:43.462Z,989.63
2023-10-26T14:03:43.468Z,989.56
2023-10-26T14:04:43.555Z,989.60
2023-10-26T14:05:43.404Z,989.62
2023-10-26T14:06:43.436Z,989.62
2023-10-26T14:07:43.422Z,989.55
2023-10-26T14:08:43.427Z,989.58
2023-10-26T14:09:43.398Z,989.51
2023-10-26T14:10:43.396Z,989.55
2023-10-26T14:11:43.382Z,989.49
2023-10-26T14:12:43.392Z,989.48
2023-10-26T14:13:43.504Z,989.47
2023-10-26T14:14:43.533Z,989.47
2023-10-26T14:15:43.439Z,989.45
2023-10-26T14:16:43.401Z,989.47
2023-10-26T14:17:43.388Z,989.45
2023-10-26T14:18:43.402Z,989.43
2023-10-26T14:19:43.368Z,989.45
2023-10-26T14:20:43.404Z,989.43
2023-10-26T14:21:43.374Z,989.41
2023-10-26T14:22:43.376Z,989.43
2023-10-26T14:23:43.346Z,989.43
2023-10-26T14:24:43.636Z,989.43
2023-10-26T14:25:43.461Z,989.39
2023-10-26T14:26:43.336Z,989.41
2023-10-26T14:27:43.391Z,989.39
2023-10-26T14:28:43.328Z,989.37
2023-10-26T14:29:43.463Z,989.37
2023-10-26T14:30:43.386Z,989.38
2023-10-26T14:31:43.329Z,989.36
2023-10-26T14:32:43.383Z,989.33
2023-10-26T14:33:43.354Z,989.32
2023-10-26T14:34:43.584Z,989.41
2023-10-26T14:35:43.338Z,989.36
2023-10-26T14:36:43.304Z,989.39
2023-10-26T14:37:43.305Z,989.38
2023-10-26T14:38:43.301Z,989.41
2023-10-26T14:39:43.353Z,989.39
2023-10-26T14:40:43.317Z,989.41
2023-10-26T14:41:43.298Z,989.44
2023-10-26T14:42:43.323Z,989.41
2023-10-26T14:43:43.292Z,989.41
2023-10-26T14:44:43.541Z,989.41
2023-10-26T14:45:43.318Z,989.38
2023-10-26T14:46:43.308Z,989.39
2023-10-26T14:47:43.281Z,989.38
2023-10-26T14:48:43.292Z,989.37
2023-10-26T14:49:43.297Z,989.38
2023-10-26T14:50:43.294Z,989.42
2023-10-26T14:51:43.276Z,989.43
2023-10-26T14:52:43.253Z,989.44
2023-10-26T14:53:43.262Z,989.43
2023-10-26T14:54:43.554Z,989.42
2023-10-26T14:55:43.252Z,989.42
2023-10-26T14:56:43.249Z,989.44
2023-10-26T14:57:43.262Z,989.39
2023-10-26T14:58:43.239Z,989.41
2023-10-26T14:59:43.251Z,989.38
2023-10-26T15:00:43.311Z,989.38
2023-10-26T15:01:43.341Z,989.34
2023-10-26T15:02:43.278Z,989.35
2023-10-26T15:03:43.284Z,989.35
2023-10-26T15:04:43.385Z,989.34
2023-10-26T15:05:43.266Z,989.36
2023-10-26T15:06:43.245Z,989.33
2023-10-26T15:07:43.211Z,989.33
2023-10-26T15:08:43.247Z,989.36
2023-10-26T15:10:20.193Z,989.38
2023-10-26T15:10:43.237Z,989.35
2023-10-26T15:11:56.011Z,989.35
2023-10-26T15:12:43.242Z,989.38
2023-10-26T15:13:43.194Z,989.37
2023-10-26T15:14:43.349Z,989.40
2023-10-26T15:15:43.264Z,989.40
2023-10-26T15:16:43.264Z,989.40
2023-10-26T15:17:43.346Z,989.42
2023-10-26T15:18:43.247Z,989.41
2023-10-26T15:19:43.177Z,989.43
2023-10-26T15:20:43.202Z,989.43
2023-10-26T15:21:43.248Z,989.42
2023-10-26T15:22:43.157Z,989.48
2023-10-26T15:23:43.194Z,989.45
2023-10-26T15:24:43.482Z,989.44
2023-10-26T15:25:43.176Z,989.48
2023-10-26T15:26:43.184Z,989.46
2023-10-26T15:27:43.215Z,989.47
2023-10-26T15:28:43.208Z,989.47
2023-10-26T15:29:43.193Z,989.45
2023-10-26T15:30:43.166Z,989.45
2023-10-26T15:31:43.172Z,989.48
2023-10-26T15:32:43.182Z,989.44
2023-10-26T15:33:43.331Z,989.45
2023-10-26T15:34:43.374Z,989.44
2023-10-26T15:35:43.141Z,989.43
2023-10-26T15:36:43.163Z,989.43
2023-10-26T15:37:43.127Z,989.39
2023-10-26T15:38:43.124Z,989.39
2023-10-26T15:39:43.218Z,989.36
2023-10-26T15:40:43.119Z,989.33
2023-10-26T15:41:43.149Z,989.34
2023-10-26T15:42:43.126Z,989.33
2023-10-26T15:43:43.125Z,989.31
2023-10-26T15:44:43.537Z,989.34
2023-10-26T15:45:43.145Z,989.34
2023-10-26T15:46:43.119Z,989.32
2023-10-26T15:47:43.152Z,989.34
2023-10-26T15:49:32.762Z,989.30
2023-10-26T15:49:43.226Z,989.30
2023-10-26T15:50:43.094Z,989.31
2023-10-26T15:51:43.109Z,989.30
2023-10-26T15:52:43.112Z,989.25
2023-10-26T15:53:43.090Z,989.28
2023-10-26T15:54:43.379Z,989.27
2023-10-26T15:55:43.083Z,989.27
2023-10-26T15:56:43.083Z,989.25
2023-10-26T15:57:43.104Z,989.24
2023-10-26T15:58:43.069Z,989.27
2023-10-26T15:59:43.069Z,989.28
2023-10-26T16:00:43.086Z,989.27
2023-10-26T16:01:43.096Z,989.29
2023-10-26T16:02:44.659Z,989.29
2023-10-26T16:03:43.101Z,989.27
2023-10-26T16:04:43.295Z,989.30
2023-10-26T16:05:43.192Z,989.31
2023-10-26T16:06:43.054Z,989.29
2023-10-26T16:07:43.070Z,989.32
2023-10-26T16:08:43.044Z,989.27
2023-10-26T16:09:43.043Z,989.24
2023-10-26T16:10:43.036Z,989.23
2023-10-26T16:11:43.028Z,989.22
2023-10-26T16:12:43.097Z,989.21
2023-10-26T16:13:43.041Z,989.21
2023-10-26T16:14:43.210Z,989.24
2023-10-26T16:15:43.101Z,989.18
2023-10-26T16:16:43.088Z,989.16
2023-10-26T16:28:52.796Z,989.05
2023-10-26T16:29:52.630Z,989.02
2023-10-26T16:30:52.672Z,989.09
2023-10-26T16:31:52.667Z,989.12
2023-10-26T16:32:52.645Z,989.15
2023-10-26T16:33:52.639Z,989.14
2023-10-26T16:34:52.601Z,989.15
2023-10-26T16:35:52.632Z,989.14
2023-10-26T16:36:52.648Z,989.13
2023-10-26T16:37:52.621Z,989.11
2023-10-26T16:38:52.591Z,989.11
2023-10-26T16:39:52.605Z,989.10
2023-10-26T16:40:52.585Z,989.08
2023-10-26T16:41:52.568Z,989.08
2023-10-26T16:42:52.593Z,989.05
2023-10-26T16:43:52.564Z,989.04
2023-10-26T16:44:52.662Z,989.04
2023-10-26T16:45:52.711Z,989.05
2023-10-26T16:46:52.615Z,989.04
2023-10-26T16:47:56.223Z,989.03
2023-10-26T16:48:52.556Z,989.03
2023-10-26T16:49:52.530Z,989.07
2023-10-26T16:50:52.536Z,989.07
2023-10-26T16:51:52.575Z,989.07
2023-10-26T16:52:52.526Z,989.10
2023-10-26T16:53:52.514Z,989.08
2023-10-26T16:54:52.538Z,989.06
2023-10-26T16:55:52.539Z,989.07
2023-10-26T16:56:52.516Z,989.07
2023-10-26T16:57:52.566Z,989.05
2023-10-26T16:58:52.510Z,989.04
2023-10-26T16:59:52.494Z,989.07
2023-10-26T17:00:52.633Z,989.04
2023-10-26T17:01:52.511Z,989.08
2023-10-26T17:02:52.517Z,989.09
2023-10-26T17:03:52.487Z,989.07
2023-10-26T17:04:52.468Z,989.07
2023-10-26T17:05:52.480Z,989.09
2023-10-26T17:06:55.217Z,989.08
2023-10-26T17:07:52.474Z,989.07
2023-10-26T17:08:52.461Z,989.11
2023-10-26T17:09:52.488Z,989.10